Time;durP1;ratioP1;P1;durP2;ratioP2;P2;SDS_P1;SDS_P2;PMS_P1;PMS_P2;Temp;Humidity;BMP_temperature;BMP_pressure;BME280_temperature;BME280_humidity;BME280_pressure;Samples;Min_cycle;Max_cycle;Signal;HPM_P1;HPM_P2
2021/03/17 00:00:18;;;;;;;16.00;8.93;;;;;;;;;;1036261;28;20022;-44
2021/03/17 00:00:48;;;;;;;16.50;9.23;;;;;;;;;;1035817;28;20507;-46
2021/03/17 00:01:18;;;;;;;17.00;9.40;;;;;;;;;;1035937;28;20027;-44
2021/03/17 00:01:49;;;;;;;15.80;8.40;;;;;;;;;;1035977;28;20018;-44
2021/03/17 00:02:19;;;;;;;16.43;8.53;;;;;;;;;;1035877;28;20025;-44
2021/03/17 00:02:49;;;;;;;12.10;7.87;;;;;;;;;;1036342;28;20010;-44
2021/03/17 00:03:20;;;;;;;14.23;7.83;;;;;;;;;;1036207;28;20037;-43
2021/03/17 00:03:50;;;;;;;12.00;8.37;;;;;;;;;;1036235;28;20030;-45
2021/03/17 00:04:20;;;;;;;15.47;9.33;;;;;;;;;;1036106;28;20018;-44
2021/03/17 00:04:51;;;;;;;14.67;9.00;;;;;;;;;;1036180;28;20120;-44
2021/03/17 00:05:22;;;;;;;15.07;8.57;;;;;;;;;;1036119;28;20506;-45
2021/03/17 00:05:52;;;;;;;16.70;8.90;;;;;;;;;;1036141;28;20510;-47
2021/03/17 00:06:23;;;;;;;13.80;8.90;;;;;;;;;;1035767;28;20021;-44
2021/03/17 00:06:53;;;;;;;17.43;8.90;;;;;;;;;;1035805;28;20458;-45
2021/03/17 00:07:23;;;;;;;12.40;8.80;;;;;;;;;;1036197;28;20022;-43
2021/03/17 00:07:54;;;;;;;12.73;8.23;;;;;;;;;;1035972;28;20196;-46
2021/03/17 00:08:24;;;;;;;16.30;8.03;;;;;;;;;;1036102;28;20112;-44
2021/03/17 00:08:54;;;;;;;15.53;8.53;;;;;;;;;;1036449;28;20074;-44
2021/03/17 00:09:24;;;;;;;16.47;9.17;;;;;;;;;;1036159;28;20104;-44
2021/03/17 00:09:55;;;;;;;17.80;8.43;;;;;;;;;;1035851;28;20022;-43
2021/03/17 00:10:25;;;;;;;17.33;9.20;;;;;;;;;;1031556;28;20583;-45
2021/03/17 00:10:56;;;;;;;16.20;8.80;;;;;;;;;;1031944;28;20022;-45
2021/03/17 00:11:26;;;;;;;15.07;8.07;;;;;;;;;;1035945;28;20075;-46
2021/03/17 00:11:57;;;;;;;15.77;8.70;;;;;;;;;;1036036;28;20433;-44
2021/03/17 00:12:27;;;;;;;13.20;9.13;;;;;;;;;;1036161;28;20014;-45
2021/03/17 00:12:57;;;;;;;19.83;8.87;;;;;;;;;;1036057;28;20105;-44
2021/03/17 00:13:28;;;;;;;14.87;9.37;;;;;;;;;;1035846;28;20080;-45
2021/03/17 00:13:58;;;;;;;15.50;8.13;;;;;;;;;;1036048;28;20017;-45
2021/03/17 00:14:28;;;;;;;12.57;8.17;;;;;;;;;;1035890;28;20395;-45
2021/03/17 00:14:58;;;;;;;11.90;8.00;;;;;;;;;;1036280;28;20046;-43
2021/03/17 00:15:30;;;;;;;15.50;8.00;;;;;;;;;;1036203;28;20014;-44
2021/03/17 00:16:00;;;;;;;14.40;8.27;;;;;;;;;;1036372;28;20535;-44
2021/03/17 00:16:30;;;;;;;14.00;8.07;;;;;;;;;;1035521;28;20014;-45
2021/03/17 00:17:01;;;;;;;17.33;8.73;;;;;;;;;;1036181;28;20470;-46
2021/03/17 00:17:31;;;;;;;15.90;9.07;;;;;;;;;;1036067;28;20014;-49
2021/03/17 00:18:01;;;;;;;13.80;8.43;;;;;;;;;;1035979;28;20037;-43
2021/03/17 00:18:31;;;;;;;18.27;9.60;;;;;;;;;;1035969;28;20411;-43
2021/03/17 00:19:02;;;;;;;18.07;9.33;;;;;;;;;;1035999;28;20479;-43
2021/03/17 00:19:32;;;;;;;19.60;8.77;;;;;;;;;;1032066;28;20437;-46
2021/03/17 00:20:05;;;;;;;15.40;8.33;;;;;;;;;;1035890;28;20108;-45
2021/03/17 00:20:35;;;;;;;14.65;8.82;;;;;;;;;;1035816;28;20037;-47
2021/03/17 00:21:06;;;;;;;18.70;8.80;;;;;;;;;;1035755;28;20144;-44
2021/03/17 00:21:36;;;;;;;13.77;8.63;;;;;;;;;;1036550;28;19998;-43
2021/03/17 00:22:07;;;;;;;16.83;9.03;;;;;;;;;;1036199;28;20098;-44
2021/03/17 00:22:37;;;;;;;17.10;9.43;;;;;;;;;;1036272;28;20085;-45
2021/03/17 00:23:07;;;;;;;14.43;9.00;;;;;;;;;;1035904;28;20010;-43
2021/03/17 00:23:37;;;;;;;15.60;8.77;;;;;;;;;;1035525;28;20060;-46
2021/03/17 00:24:08;;;;;;;12.60;7.90;;;;;;;;;;1035860;28;20629;-45
2021/03/17 00:24:38;;;;;;;18.67;8.57;;;;;;;;;;1031782;28;20002;-43
2021/03/17 00:25:09;;;;;;;16.50;8.53;;;;;;;;;;1031898;28;20007;-45
2021/03/17 00:25:39;;;;;;;18.07;9.40;;;;;;;;;;1035792;28;20028;-45
2021/03/17 00:26:10;;;;;;;17.57;9.77;;;;;;;;;;1035913;28;20006;-44
2021/03/17 00:26:40;;;;;;;17.87;9.30;;;;;;;;;;1036118;28;20460;-44
2021/03/17 00:27:10;;;;;;;14.57;9.50;;;;;;;;;;1036113;28;20097;-45
2021/03/17 00:27:40;;;;;;;17.20;9.60;;;;;;;;;;1036256;28;20009;-45
2021/03/17 00:28:11;;;;;;;15.90;9.20;;;;;;;;;;1036179;28;20010;-44
2021/03/17 00:28:41;;;;;;;12.27;8.00;;;;;;;;;;1036138;28;20041;-44
2021/03/17 00:29:11;;;;;;;15.83;8.50;;;;;;;;;;1035670;28;20012;-45
2021/03/17 00:29:42;;;;;;;17.50;9.10;;;;;;;;;;1035942;28;20013;-44
2021/03/17 00:30:12;;;;;;;13.73;9.10;;;;;;;;;;1031745;28;20527;-44
2021/03/17 00:30:43;;;;;;;14.47;9.20;;;;;;;;;;1023877;28;20538;-46
2021/03/17 00:31:13;;;;;;;15.60;8.93;;;;;;;;;;1027642;28;20003;-43
2021/03/17 00:31:43;;;;;;;15.53;8.80;;;;;;;;;;1027760;28;20066;-45
2021/03/17 00:32:14;;;;;;;14.47;9.13;;;;;;;;;;1031820;28;20010;-46
2021/03/17 00:32:44;;;;;;;14.50;9.13;;;;;;;;;;1040087;28;20382;-45
2021/03/17 00:33:14;;;;;;;16.90;9.00;;;;;;;;;;1035915;28;20096;-43
2021/03/17 00:33:45;;;;;;;16.93;9.23;;;;;;;;;;1036060;28;20459;-44
2021/03/17 00:34:15;;;;;;;16.23;9.17;;;;;;;;;;1036170;28;20013;-43
2021/03/17 00:34:45;;;;;;;13.77;8.47;;;;;;;;;;1036167;28;20009;-44
2021/03/17 00:35:16;;;;;;;14.73;8.97;;;;;;;;;;1036226;28;20056;-44
2021/03/17 00:35:47;;;;;;;15.47;9.67;;;;;;;;;;1036164;28;20025;-45
2021/03/17 00:36:17;;;;;;;18.35;10.85;;;;;;;;;;1036069;28;20022;-44
2021/03/17 00:36:47;;;;;;;14.53;9.73;;;;;;;;;;1036121;28;20026;-45
2021/03/17 00:37:18;;;;;;;17.13;10.00;;;;;;;;;;1036197;28;20485;-44
2021/03/17 00:37:48;;;;;;;15.67;9.30;;;;;;;;;;1036184;28;20068;-44
2021/03/17 00:38:18;;;;;;;14.50;8.83;;;;;;;;;;1036053;28;20724;-44
2021/03/17 00:38:48;;;;;;;14.27;9.13;;;;;;;;;;1036226;28;20011;-44
2021/03/17 00:39:19;;;;;;;16.13;8.97;;;;;;;;;;1036051;28;20042;-44
2021/03/17 00:39:49;;;;;;;13.47;9.40;;;;;;;;;;1035970;28;20364;-45
2021/03/17 00:40:19;;;;;;;14.40;8.87;;;;;;;;;;1035995;28;20514;-44
2021/03/17 00:40:50;;;;;;;13.37;8.80;;;;;;;;;;1036070;28;20022;-44
2021/03/17 00:41:20;;;;;;;14.90;9.13;;;;;;;;;;1036266;28;20017;-44
2021/03/17 00:41:50;;;;;;;14.93;9.40;;;;;;;;;;1036128;28;20525;-44
2021/03/17 00:42:20;;;;;;;15.73;9.77;;;;;;;;;;1036218;28;20014;-45
2021/03/17 00:42:51;;;;;;;17.70;10.33;;;;;;;;;;1036124;28;20018;-43
2021/03/17 00:43:22;;;;;;;15.27;9.77;;;;;;;;;;1036059;28;20113;-43
2021/03/17 00:43:52;;;;;;;16.37;9.33;;;;;;;;;;1035727;28;20136;-44
2021/03/17 00:44:22;;;;;;;13.60;9.07;;;;;;;;;;1035757;28;20096;-43
2021/03/17 00:44:52;;;;;;;16.10;9.23;;;;;;;;;;1035749;28;20009;-44
2021/03/17 00:45:23;;;;;;;15.07;8.80;;;;;;;;;;1035988;28;20360;-46
2021/03/17 00:45:53;;;;;;;14.30;10.00;;;;;;;;;;1035693;28;20025;-45
2021/03/17 00:46:23;;;;;;;14.90;9.50;;;;;;;;;;1035691;28;20541;-45
2021/03/17 00:46:53;;;;;;;14.63;9.07;;;;;;;;;;1035922;28;20022;-47
2021/03/17 00:47:24;;;;;;;16.17;9.60;;;;;;;;;;1031658;28;20455;-45
2021/03/17 00:47:54;;;;;;;16.93;9.60;;;;;;;;;;1031872;28;20054;-46
2021/03/17 00:48:24;;;;;;;13.43;9.13;;;;;;;;;;1031698;28;20457;-44
2021/03/17 00:48:55;;;;;;;18.37;10.37;;;;;;;;;;1027793;28;20065;-45
2021/03/17 00:49:25;;;;;;;15.93;9.73;;;;;;;;;;1031746;28;20100;-45
2021/03/17 00:49:55;;;;;;;16.77;9.50;;;;;;;;;;1027579;28;20026;-45
2021/03/17 00:50:26;;;;;;;16.63;10.40;;;;;;;;;;1027448;28;20058;-44
2021/03/17 00:50:56;;;;;;;17.57;9.93;;;;;;;;;;1031823;28;20046;-43
2021/03/17 00:51:26;;;;;;;18.20;10.17;;;;;;;;;;1031816;28;20025;-43
2021/03/17 00:51:57;;;;;;;13.77;9.20;;;;;;;;;;1036127;28;20469;-47
2021/03/17 00:52:27;;;;;;;17.63;9.93;;;;;;;;;;1035671;28;20431;-44
2021/03/17 00:52:57;;;;;;;17.53;9.27;;;;;;;;;;1035854;28;20534;-44
2021/03/17 00:53:28;;;;;;;15.00;9.10;;;;;;;;;;1035586;28;20416;-43
2021/03/17 00:53:58;;;;;;;19.40;10.10;;;;;;;;;;1035779;28;20113;-44
2021/03/17 00:54:28;;;;;;;12.53;9.13;;;;;;;;;;1036084;28;20018;-46
2021/03/17 00:54:58;;;;;;;15.27;9.70;;;;;;;;;;1036095;28;20021;-44
2021/03/17 00:55:29;;;;;;;14.23;9.70;;;;;;;;;;1036112;28;20010;-45
2021/03/17 00:56:00;;;;;;;15.67;9.57;;;;;;;;;;1036016;28;20410;-45
2021/03/17 00:56:30;;;;;;;12.97;8.63;;;;;;;;;;1036014;28;20010;-45
2021/03/17 00:57:00;;;;;;;15.07;8.77;;;;;;;;;;1036145;28;20015;-44
2021/03/17 00:57:30;;;;;;;16.30;9.70;;;;;;;;;;1036075;28;20016;-43
2021/03/17 00:58:01;;;;;;;16.30;9.73;;;;;;;;;;1036143;28;20064;-44
2021/03/17 00:58:31;;;;;;;14.23;9.60;;;;;;;;;;1035521;28;20018;-45
2021/03/17 00:59:01;;;;;;;16.93;10.33;;;;;;;;;;1035728;28;20018;-46
2021/03/17 00:59:32;;;;;;;15.03;9.73;;;;;;;;;;1035635;28;20473;-43
2021/03/17 01:00:05;;;;;;;17.37;10.23;;;;;;;;;;1035857;28;20033;-43
2021/03/17 01:00:35;;;;;;;17.00;10.00;;;;;;;;;;1035805;28;20022;-44
2021/03/17 01:01:05;;;;;;;17.67;10.30;;;;;;;;;;1035836;28;20018;-44
2021/03/17 01:01:36;;;;;;;15.70;9.90;;;;;;;;;;1036050;28;20387;-45
2021/03/17 01:02:06;;;;;;;15.00;9.93;;;;;;;;;;1035928;28;20017;-44
2021/03/17 01:02:36;;;;;;;16.80;10.73;;;;;;;;;;1035944;28;20064;-44
2021/03/17 01:03:07;;;;;;;18.23;10.40;;;;;;;;;;1035801;28;20367;-46
2021/03/17 01:03:37;;;;;;;16.70;10.00;;;;;;;;;;1035832;28;20006;-44
2021/03/17 01:04:07;;;;;;;14.83;9.97;;;;;;;;;;1035971;28;20042;-43
2021/03/17 01:04:38;;;;;;;16.20;9.67;;;;;;;;;;1035493;28;20006;-43
2021/03/17 01:05:08;;;;;;;17.10;10.13;;;;;;;;;;1035609;28;20009;-46
2021/03/17 01:05:39;;;;;;;12.60;9.60;;;;;;;;;;1031556;28;20524;-44
2021/03/17 01:06:09;;;;;;;14.73;10.33;;;;;;;;;;1031625;28;20065;-45
2021/03/17 01:06:39;;;;;;;15.40;9.80;;;;;;;;;;1031430;28;20328;-45
2021/03/17 01:07:13;;;;;;;18.53;10.20;;;;;;;;;;1031605;28;20090;-43
2021/03/17 01:07:43;;;;;;;16.40;10.32;;;;;;;;;;1031616;28;20011;-45
2021/03/17 01:08:14;;;;;;;17.07;10.27;;;;;;;;;;1031924;28;20018;-46
2021/03/17 01:08:44;;;;;;;13.00;9.83;;;;;;;;;;1035547;28;20145;-44
2021/03/17 01:09:15;;;;;;;19.53;10.57;;;;;;;;;;1035576;28;20010;-44
2021/03/17 01:09:45;;;;;;;17.73;10.40;;;;;;;;;;1036062;28;20013;-45
2021/03/17 01:10:19;;;;;;;15.93;10.60;;;;;;;;;;1036013;28;20002;-46
2021/03/17 01:10:49;;;;;;;13.20;9.77;;;;;;;;;;1035737;28;20116;-44
2021/03/17 01:11:20;;;;;;;18.93;10.53;;;;;;;;;;1035816;28;20017;-45
2021/03/17 01:11:50;;;;;;;15.53;10.43;;;;;;;;;;1035970;28;20008;-46
2021/03/17 01:12:20;;;;;;;14.63;9.53;;;;;;;;;;1035967;28;20092;-46
2021/03/17 01:12:50;;;;;;;18.93;11.23;;;;;;;;;;1035981;28;20048;-44
2021/03/17 01:13:21;;;;;;;15.00;10.47;;;;;;;;;;1035348;28;20371;-45
2021/03/17 01:13:51;;;;;;;15.53;10.60;;;;;;;;;;1035493;28;20049;-44
2021/03/17 01:14:22;;;;;;;15.07;10.77;;;;;;;;;;1035588;28;20084;-45
2021/03/17 01:14:52;;;;;;;19.50;11.47;;;;;;;;;;1035587;28;20009;-43
2021/03/17 01:15:22;;;;;;;21.13;11.53;;;;;;;;;;1035520;28;20603;-45
2021/03/17 01:15:52;;;;;;;18.03;10.80;;;;;;;;;;1035520;28;20014;-44
2021/03/17 01:16:23;;;;;;;19.33;10.97;;;;;;;;;;1035689;28;20010;-45
2021/03/17 01:16:53;;;;;;;18.57;10.40;;;;;;;;;;1035624;28;20109;-44
2021/03/17 01:17:23;;;;;;;16.97;11.17;;;;;;;;;;1036305;28;20155;-44
2021/03/17 01:17:54;;;;;;;18.17;10.73;;;;;;;;;;1036378;28;20018;-45
2021/03/17 01:18:24;;;;;;;16.10;11.20;;;;;;;;;;1036333;28;20037;-45
2021/03/17 01:18:54;;;;;;;16.90;10.87;;;;;;;;;;1036449;28;20014;-43
2021/03/17 01:19:24;;;;;;;16.60;10.97;;;;;;;;;;1036405;28;20013;-43
2021/03/17 01:19:55;;;;;;;15.10;10.70;;;;;;;;;;1036412;28;20014;-44
2021/03/17 01:20:26;;;;;;;18.10;11.07;;;;;;;;;;1036469;28;20010;-43
2021/03/17 01:20:56;;;;;;;16.25;10.73;;;;;;;;;;1036571;28;20038;-44
2021/03/17 01:21:26;;;;;;;18.17;10.00;;;;;;;;;;1036157;28;20384;-45
2021/03/17 01:21:57;;;;;;;17.90;10.70;;;;;;;;;;1036410;28;20375;-44
2021/03/17 01:22:27;;;;;;;16.43;10.70;;;;;;;;;;1036357;28;20120;-46
2021/03/17 01:22:57;;;;;;;17.77;10.10;;;;;;;;;;1035321;28;20025;-44
2021/03/17 01:23:27;;;;;;;17.23;9.97;;;;;;;;;;1027400;28;20390;-44
2021/03/17 01:23:58;;;;;;;17.07;10.90;;;;;;;;;;1031926;28;20460;-44
2021/03/17 01:24:28;;;;;;;12.37;10.47;;;;;;;;;;1032318;28;20045;-43
2021/03/17 01:24:58;;;;;;;16.93;10.50;;;;;;;;;;1032283;28;20076;-45
2021/03/17 01:25:33;;;;;;;14.97;10.23;;;;;;;;;;1032247;28;20026;-45
2021/03/17 01:26:03;;;;;;;14.88;10.38;;;;;;;;;;1032343;28;20391;-43
2021/03/17 01:26:33;;;;;;;15.77;10.67;;;;;;;;;;1032305;28;20018;-43
2021/03/17 01:27:04;;;;;;;18.67;11.17;;;;;;;;;;1032474;28;20352;-43
2021/03/17 01:27:34;;;;;;;15.73;11.20;;;;;;;;;;1032216;28;20121;-44
2021/03/17 01:28:06;;;;;;;17.27;11.03;;;;;;;;;;1032197;28;20010;-43
2021/03/17 01:28:39;;;;;;;16.17;11.25;;;;;;;;;;1032292;28;20098;-44
2021/03/17 01:29:09;;;;;;;20.02;11.32;;;;;;;;;;1032193;28;20554;-44
2021/03/17 01:29:39;;;;;;;16.73;10.93;;;;;;;;;;1032169;28;20061;-43
2021/03/17 01:30:10;;;;;;;18.37;11.80;;;;;;;;;;1032398;28;20022;-44
2021/03/17 01:30:44;;;;;;;15.87;11.20;;;;;;;;;;1032232;28;20025;-45
2021/03/17 01:31:14;;;;;;;18.45;11.70;;;;;;;;;;1032365;28;20026;-43
2021/03/17 01:31:45;;;;;;;17.87;11.47;;;;;;;;;;1031954;28;20102;-47
2021/03/17 01:32:15;;;;;;;19.53;11.60;;;;;;;;;;1032359;28;20042;-45
2021/03/17 01:32:45;;;;;;;18.30;12.20;;;;;;;;;;1032379;28;20007;-45
2021/03/17 01:33:16;;;;;;;18.40;11.50;;;;;;;;;;1032216;28;20038;-47
2021/03/17 01:33:46;;;;;;;20.13;11.93;;;;;;;;;;1032063;28;20018;-45
2021/03/17 01:34:16;;;;;;;17.20;11.57;;;;;;;;;;1032190;28;20080;-45
2021/03/17 01:34:47;;;;;;;17.87;11.43;;;;;;;;;;1032366;28;20025;-44
2021/03/17 01:35:17;;;;;;;17.27;11.00;;;;;;;;;;1029353;28;20501;-45
2021/03/17 01:35:47;;;;;;;17.43;11.07;;;;;;;;;;1036404;28;20013;-42
2021/03/17 01:36:18;;;;;;;16.30;11.27;;;;;;;;;;1036207;28;20149;-43
2021/03/17 01:36:48;;;;;;;15.40;11.70;;;;;;;;;;1036546;28;20085;-43
2021/03/17 01:37:18;;;;;;;15.30;10.83;;;;;;;;;;1035242;28;20045;-45
2021/03/17 01:37:48;;;;;;;15.27;10.90;;;;;;;;;;1033836;28;20422;-43
2021/03/17 01:38:19;;;;;;;16.53;11.53;;;;;;;;;;1030548;28;20411;-45
2021/03/17 01:38:49;;;;;;;20.73;12.67;;;;;;;;;;1033379;28;20025;-45
2021/03/17 01:39:19;;;;;;;15.77;10.93;;;;;;;;;;1036007;28;20493;-44
2021/03/17 01:39:49;;;;;;;17.70;11.33;;;;;;;;;;1034527;28;20049;-43
2021/03/17 01:40:24;;;;;;;19.03;11.00;;;;;;;;;;1032771;28;20018;-45
2021/03/17 01:40:54;;;;;;;16.35;11.50;;;;;;;;;;1036064;28;20010;-43
2021/03/17 01:41:24;;;;;;;20.43;11.73;;;;;;;;;;1035784;28;20018;-45
2021/03/17 01:41:55;;;;;;;20.50;12.27;;;;;;;;;;1036199;28;20097;-43
2021/03/17 01:42:25;;;;;;;13.90;10.57;;;;;;;;;;1035923;28;20101;-44
2021/03/17 01:42:55;;;;;;;17.50;11.53;;;;;;;;;;1036238;28;20017;-44
2021/03/17 01:43:25;;;;;;;15.93;11.03;;;;;;;;;;1036302;28;20017;-43
2021/03/17 01:43:56;;;;;;;15.70;11.70;;;;;;;;;;1033101;28;20045;-43
2021/03/17 01:44:26;;;;;;;16.67;11.60;;;;;;;;;;1033013;28;20061;-44
2021/03/17 01:44:56;;;;;;;17.10;11.63;;;;;;;;;;1036295;28;20107;-44
2021/03/17 01:45:27;;;;;;;15.87;12.70;;;;;;;;;;1036458;28;20355;-43
2021/03/17 01:45:57;;;;;;;16.13;11.37;;;;;;;;;;1036236;28;20017;-43
2021/03/17 01:46:27;;;;;;;18.60;12.10;;;;;;;;;;1036106;28;20557;-43
2021/03/17 01:46:58;;;;;;;16.70;11.80;;;;;;;;;;1036121;28;20014;-43
2021/03/17 01:47:28;;;;;;;17.80;11.27;;;;;;;;;;1036037;28;20088;-44
2021/03/17 01:47:58;;;;;;;12.73;10.60;;;;;;;;;;1035977;28;20018;-43
2021/03/17 01:48:28;;;;;;;15.70;10.97;;;;;;;;;;1036230;28;20044;-44
2021/03/17 01:48:59;;;;;;;15.07;11.37;;;;;;;;;;1036197;28;20013;-43
2021/03/17 01:49:29;;;;;;;15.10;11.20;;;;;;;;;;1035960;28;20006;-44
2021/03/17 01:49:59;;;;;;;15.47;11.33;;;;;;;;;;1035992;28;20018;-44
2021/03/17 01:50:30;;;;;;;17.83;12.27;;;;;;;;;;1036263;28;20089;-44
2021/03/17 01:51:01;;;;;;;15.80;11.65;;;;;;;;;;1036141;28;20487;-44
2021/03/17 01:51:31;;;;;;;17.20;11.90;;;;;;;;;;1035993;28;20032;-44
2021/03/17 01:52:02;;;;;;;16.43;11.60;;;;;;;;;;1031223;28;20060;-43
2021/03/17 01:52:32;;;;;;;16.87;11.43;;;;;;;;;;1031579;28;20057;-43
2021/03/17 01:53:09;;;;;;;15.40;11.47;;;;;;;;;;1027693;28;20015;-45
2021/03/17 01:53:39;;;;;;;16.10;12.20;;;;;;;;;;1031759;28;20467;-44
2021/03/17 01:54:10;;;;;;;15.37;11.07;;;;;;;;;;1031766;28;20068;-43
2021/03/17 01:54:40;;;;;;;13.03;10.77;;;;;;;;;;1032344;28;20010;-43
2021/03/17 01:55:10;;;;;;;14.53;11.53;;;;;;;;;;1032278;28;20014;-43
2021/03/17 01:55:41;;;;;;;15.50;11.60;;;;;;;;;;1032053;28;20028;-44
2021/03/17 01:56:11;;;;;;;17.23;12.53;;;;;;;;;;1032084;28;20002;-43
2021/03/17 01:56:41;;;;;;;14.97;11.70;;;;;;;;;;1032217;28;20018;-44
2021/03/17 01:57:11;;;;;;;17.73;12.40;;;;;;;;;;1032014;28;20080;-45
2021/03/17 01:57:42;;;;;;;17.43;11.37;;;;;;;;;;1028070;28;20063;-43
2021/03/17 01:58:12;;;;;;;16.33;12.50;;;;;;;;;;1023778;28;20039;-44
2021/03/17 01:58:43;;;;;;;15.70;11.40;;;;;;;;;;1023935;28;20095;-44
2021/03/17 01:59:13;;;;;;;13.97;11.83;;;;;;;;;;1024015;28;20023;-44
2021/03/17 01:59:43;;;;;;;14.53;11.07;;;;;;;;;;1027823;28;20020;-43
2021/03/17 02:00:15;;;;;;;16.80;12.03;;;;;;;;;;1031732;28;20018;-44
2021/03/17 02:00:45;;;;;;;14.50;11.77;;;;;;;;;;1032681;28;20022;-46
2021/03/17 02:01:15;;;;;;;16.60;12.17;;;;;;;;;;1035689;28;20525;-45
2021/03/17 02:01:45;;;;;;;16.83;12.53;;;;;;;;;;1036329;28;20025;-44
2021/03/17 02:02:16;;;;;;;15.77;12.40;;;;;;;;;;1029551;28;20179;-43
2021/03/17 02:02:47;;;;;;;17.93;12.83;;;;;;;;;;1031094;28;20463;-45
2021/03/17 02:03:18;;;;;;;16.77;13.15;;;;;;;;;;1031633;28;20029;-44
2021/03/17 02:03:48;;;;;;;17.13;12.07;;;;;;;;;;1031700;28;20029;-43
2021/03/17 02:04:18;;;;;;;16.00;12.67;;;;;;;;;;1032167;28;20038;-44
2021/03/17 02:04:49;;;;;;;16.07;12.00;;;;;;;;;;1030988;28;20570;-49
2021/03/17 02:05:26;;;;;;;16.10;11.90;;;;;;;;;;1035580;28;20014;-44
2021/03/17 02:05:56;;;;;;;15.80;12.00;;;;;;;;;;1035733;28;20427;-44
2021/03/17 02:06:27;;;;;;;13.87;11.90;;;;;;;;;;1035803;28;20061;-43
2021/03/17 02:06:57;;;;;;;14.27;12.13;;;;;;;;;;1036038;28;20017;-44
2021/03/17 02:07:27;;;;;;;17.47;12.60;;;;;;;;;;1035939;28;20025;-44
2021/03/17 02:07:59;;;;;;;15.47;12.10;;;;;;;;;;1036211;28;20030;-45
2021/03/17 02:08:30;;;;;;;16.10;12.40;;;;;;;;;;1036217;28;20014;-45
2021/03/17 02:09:01;;;;;;;18.25;12.63;;;;;;;;;;1033081;28;20479;-45
2021/03/17 02:09:31;;;;;;;18.57;13.47;;;;;;;;;;1033620;28;20045;-43
2021/03/17 02:10:04;;;;;;;17.13;12.93;;;;;;;;;;1032250;28;20025;-45
2021/03/17 02:10:35;;;;;;;19.25;13.27;;;;;;;;;;1031681;28;20026;-46
2021/03/17 02:11:05;;;;;;;14.80;12.97;;;;;;;;;;1029984;28;20053;-44
2021/03/17 02:11:39;;;;;;;17.67;12.50;;;;;;;;;;1027601;28;20178;-45
2021/03/17 02:12:12;;;;;;;16.17;13.15;;;;;;;;;;1027768;28;20086;-43
2021/03/17 02:12:46;;;;;;;16.50;13.23;;;;;;;;;;1027825;28;20082;-44
2021/03/17 02:13:35;;;;;;;16.10;13.63;;;;;;;;;;1025268;28;20093;-44
2021/03/17 02:14:12;;;;;;;15.70;12.35;;;;;;;;;;1032245;28;20053;-42
2021/03/17 02:14:56;;;;;;;19.00;13.38;;;;;;;;;;1032163;28;20057;-42
2021/03/17 02:15:26;;;;;;;15.38;12.75;;;;;;;;;;1031654;28;20495;-47
2021/03/17 02:15:57;;;;;;;17.03;13.33;;;;;;;;;;1030267;28;20028;-43
2021/03/17 02:16:29;;;;;;;17.73;13.80;;;;;;;;;;1031567;28;20572;-43
2021/03/17 02:17:04;;;;;;;18.20;13.82;;;;;;;;;;1028148;28;20010;-43
2021/03/17 02:17:34;;;;;;;16.45;12.82;;;;;;;;;;1030669;28;20384;-43
2021/03/17 02:18:11;;;;;;;18.30;14.50;;;;;;;;;;1031846;28;20097;-44
2021/03/17 02:19:01;;;;;;;18.38;15.15;;;;;;;;;;1029094;28;20046;-43
2021/03/17 02:19:32;;;;;;;;;;;;;;;;;;1027994;28;20476;-44
2021/03/17 02:20:20;;;;;;;17.60;13.77;;;;;;;;;;1024226;28;19914;-43
2021/03/17 02:20:54;;;;;;;19.27;13.60;;;;;;;;;;1021946;29;20035;-43
2021/03/17 02:21:30;;;;;;;16.00;13.63;;;;;;;;;;1019722;29;20020;-44
2021/03/17 02:22:19;;;;;;;17.50;14.63;;;;;;;;;;1017125;29;20028;-43
2021/03/17 02:23:01;;;;;;;18.95;14.50;;;;;;;;;;1023258;29;20417;-43
2021/03/17 02:23:42;;;;;;;20.63;15.00;;;;;;;;;;1023275;29;20354;-43
2021/03/17 02:24:18;;;;;;;21.50;15.13;;;;;;;;;;1019575;29;20111;-44
2021/03/17 02:24:53;;;;;;;21.42;14.98;;;;;;;;;;1015860;29;20107;-45
2021/03/17 02:25:43;;;;;;;20.15;16.10;;;;;;;;;;1014556;29;20214;-43
2021/03/17 02:26:14;;;;;;;;;;;;;;;;;;1019807;29;20074;-45
2021/03/17 02:27:02;;;;;;;19.97;15.07;;;;;;;;;;1023116;29;19913;-44
2021/03/17 02:27:47;;;;;;;18.35;15.10;;;;;;;;;;1027565;28;20023;-46
2021/03/17 02:28:23;;;;;;;18.38;14.27;;;;;;;;;;1027586;28;20038;-44
2021/03/17 02:28:58;;;;;;;17.85;14.15;;;;;;;;;;1027658;28;20025;-44
2021/03/17 02:29:32;;;;;;;17.83;13.50;;;;;;;;;;1023517;28;20056;-44
2021/03/17 02:30:06;;;;;;;20.05;15.82;;;;;;;;;;1022984;29;20428;-44
2021/03/17 02:30:42;;;;;;;20.52;15.43;;;;;;;;;;1014721;28;20589;-44
2021/03/17 02:31:18;;;;;;;19.42;14.73;;;;;;;;;;1013428;29;20030;-47
2021/03/17 02:31:51;;;;;;;20.05;15.38;;;;;;;;;;1015593;29;20127;-46
2021/03/17 02:32:40;;;;;;;20.35;15.68;;;;;;;;;;1019384;29;20521;-44
2021/03/17 02:33:28;;;;;;;19.60;15.30;;;;;;;;;;1023395;29;20103;-44
2021/03/17 02:34:12;;;;;;;17.55;14.85;;;;;;;;;;1023420;28;20723;-44
2021/03/17 02:34:46;;;;;;;22.85;16.02;;;;;;;;;;1027647;28;20067;-45
2021/03/17 02:35:17;;;;;;;21.73;16.50;;;;;;;;;;1027676;28;20019;-44
2021/03/17 02:35:47;;;;;;;23.77;17.33;;;;;;;;;;1027418;28;20082;-44
2021/03/17 02:36:26;;;;;;;21.00;17.03;;;;;;;;;;1023302;29;20130;-43
2021/03/17 02:36:59;;;;;;;19.98;16.50;;;;;;;;;;1023803;29;20015;-43
2021/03/17 02:37:29;;;;;;;22.98;17.88;;;;;;;;;;1023696;29;20055;-42
2021/03/17 02:38:03;;;;;;;23.87;18.10;;;;;;;;;;1023811;28;20027;-43
2021/03/17 02:38:33;;;;;;;19.75;16.48;;;;;;;;;;1022921;29;20011;-42
2021/03/17 02:39:12;;;;;;;23.57;17.77;;;;;;;;;;1023266;29;20016;-43
2021/03/17 02:39:55;;;;;;;22.83;17.55;;;;;;;;;;1023971;29;20029;-43
2021/03/17 02:40:26;;;;;;;21.77;17.20;;;;;;;;;;1024543;28;20150;-42
2021/03/17 02:40:57;;;;;;;24.42;18.58;;;;;;;;;;1021393;29;20026;-42
2021/03/17 02:41:28;;;;;;;26.40;18.57;;;;;;;;;;1024290;29;20030;-42
2021/03/17 02:42:02;;;;;;;22.65;17.42;;;;;;;;;;1024454;29;20030;-43
2021/03/17 02:42:44;;;;;;;25.48;18.40;;;;;;;;;;1021209;29;20098;-42
2021/03/17 02:43:17;;;;;;;24.42;16.50;;;;;;;;;;1017736;28;20019;-44
2021/03/17 02:43:47;;;;;;;21.40;17.08;;;;;;;;;;1023734;29;20015;-42
2021/03/17 02:44:17;;;;;;;21.93;17.60;;;;;;;;;;1022210;29;20366;-42
2021/03/17 02:44:56;;;;;;;23.37;18.43;;;;;;;;;;1024334;28;20151;-44
2021/03/17 02:45:27;;;;;;;24.17;18.05;;;;;;;;;;1019473;29;20493;-43
2021/03/17 02:46:04;;;;;;;23.35;18.25;;;;;;;;;;1017602;29;20027;-44
2021/03/17 02:46:34;;;;;;;20.70;17.25;;;;;;;;;;1020513;29;20201;-43
2021/03/17 02:47:05;;;;;;;24.00;16.73;;;;;;;;;;1025396;28;20428;-43
2021/03/17 02:47:45;;;;;;;21.43;16.10;;;;;;;;;;1024332;29;20015;-43
2021/03/17 02:48:17;;;;;;;20.95;16.90;;;;;;;;;;1024427;28;20162;-43
2021/03/17 02:49:01;;;;;;;25.48;17.33;;;;;;;;;;1022907;29;20011;-43
2021/03/17 02:49:34;;;;;;;21.80;17.17;;;;;;;;;;1020786;28;20437;-43
2021/03/17 02:50:04;;;;;;;22.48;17.90;;;;;;;;;;1026645;28;20023;-44
2021/03/17 02:50:35;;;;;;;21.17;17.13;;;;;;;;;;1028313;28;20054;-44
2021/03/17 02:51:06;;;;;;;23.10;18.87;;;;;;;;;;1028050;28;20022;-44
2021/03/17 02:51:37;;;;;;;25.77;19.73;;;;;;;;;;1018989;29;20155;-43
2021/03/17 02:52:07;;;;;;;21.67;17.65;;;;;;;;;;1016459;29;20603;-43
2021/03/17 02:52:38;;;;;;;27.10;18.80;;;;;;;;;;1014637;29;20031;-44
2021/03/17 02:53:09;;;;;;;23.67;18.65;;;;;;;;;;1016083;29;20046;-44
2021/03/17 02:53:39;;;;;;;22.83;18.00;;;;;;;;;;1024041;29;20019;-44
2021/03/17 02:54:10;;;;;;;23.83;18.63;;;;;;;;;;1018890;28;20039;-44
2021/03/17 02:54:43;;;;;;;25.87;19.17;;;;;;;;;;1027917;28;20019;-43
2021/03/17 02:55:13;;;;;;;23.95;19.13;;;;;;;;;;1028176;28;20090;-45
2021/03/17 02:55:44;;;;;;;20.87;16.90;;;;;;;;;;1024642;28;20086;-44
2021/03/17 02:56:15;;;;;;;26.63;18.85;;;;;;;;;;1023655;29;20357;-44
2021/03/17 02:56:46;;;;;;;25.50;18.43;;;;;;;;;;1020215;29;20023;-43
2021/03/17 02:57:18;;;;;;;20.58;17.25;;;;;;;;;;1024584;28;20030;-45
2021/03/17 02:57:48;;;;;;;18.77;16.63;;;;;;;;;;1024841;28;20031;-44
2021/03/17 02:58:18;;;;;;;21.63;17.30;;;;;;;;;;1020481;29;20385;-43
2021/03/17 02:58:49;;;;;;;22.80;17.83;;;;;;;;;;1020695;29;20035;-43
2021/03/17 02:59:19;;;;;;;24.57;17.27;;;;;;;;;;1024503;29;20469;-43
2021/03/17 02:59:50;;;;;;;21.53;17.07;;;;;;;;;;1024727;28;20015;-44
2021/03/17 03:00:21;;;;;;;23.95;19.38;;;;;;;;;;1024625;28;20007;-43
2021/03/17 03:00:51;;;;;;;26.63;19.87;;;;;;;;;;1028327;28;20019;-45
2021/03/17 03:01:21;;;;;;;21.43;17.97;;;;;;;;;;1024689;28;20012;-44
2021/03/17 03:01:52;;;;;;;23.10;18.10;;;;;;;;;;1028206;28;20498;-46
2021/03/17 03:02:22;;;;;;;22.07;18.00;;;;;;;;;;1030062;28;20105;-43
2021/03/17 03:02:53;;;;;;;23.43;18.27;;;;;;;;;;1028825;28;20085;-44
2021/03/17 03:03:24;;;;;;;23.20;17.80;;;;;;;;;;1024252;28;20489;-44
2021/03/17 03:03:55;;;;;;;20.25;16.30;;;;;;;;;;1023393;28;20463;-44
2021/03/17 03:04:25;;;;;;;22.70;18.30;;;;;;;;;;1023425;28;20054;-44
2021/03/17 03:04:55;;;;;;;19.67;17.07;;;;;;;;;;1024197;28;20011;-44